createdAt,value
2023-03-21T00:00:48.168Z,90.58
2023-03-21T00:03:23.472Z,91.01
2023-03-21T00:05:53.641Z,91.15
2023-03-21T00:08:23.442Z,90.93
2023-03-21T00:10:58.507Z,90.87
2023-03-21T00:13:28.562Z,90.77
2023-03-21T00:16:06.939Z,90.47
2023-03-21T00:18:46.687Z,91.06
2023-03-21T00:21:39.604Z,91.61
2023-03-21T00:24:05.205Z,91.78
2023-03-21T00:26:33.711Z,91.84
2023-03-21T00:29:01.532Z,91.62
2023-03-21T00:31:29.606Z,91.08
2023-03-21T00:33:57.441Z,91.84
2023-03-21T00:36:26.241Z,92.38
2023-03-21T00:38:54.303Z,92.12
2023-03-21T00:41:39.111Z,95.61
2023-03-21T00:44:11.618Z,97.95
2023-03-21T00:46:47.298Z,100.00
2023-03-21T00:49:22.388Z,100.00
2023-03-21T00:51:51.456Z,100.00
2023-03-21T00:54:19.671Z,100.00
2023-03-21T00:56:47.656Z,100.00
2023-03-21T00:59:16.818Z,100.00
2023-03-21T01:01:46.977Z,100.00
2023-03-21T01:04:16.975Z,100.00
2023-03-21T01:06:45.144Z,100.00
2023-03-21T01:09:18.345Z,100.00
2023-03-21T01:11:46.617Z,100.00
2023-03-21T01:14:22.566Z,100.00
2023-03-21T01:16:53.272Z,100.00
2023-03-21T01:19:35.257Z,100.00
2023-03-21T01:22:08.857Z,100.00
2023-03-21T01:24:40.610Z,100.00
2023-03-21T01:27:11.619Z,100.00
2023-03-21T01:29:39.562Z,100.00
2023-03-21T01:32:07.526Z,100.00
2023-03-21T01:34:36.379Z,100.00
2023-03-21T01:37:04.391Z,100.00
2023-03-21T01:39:37.782Z,100.00
2023-03-21T01:42:05.747Z,100.00
2023-03-21T01:44:51.997Z,100.00
2023-03-21T01:47:21.606Z,100.00
2023-03-21T01:50:08.314Z,100.00
2023-03-21T01:52:42.005Z,100.00
2023-03-21T01:55:20.404Z,100.00
2023-03-21T01:58:05.947Z,100.00
2023-03-21T02:00:56.832Z,100.00
2023-03-21T02:03:54.272Z,100.00
2023-03-21T02:06:34.030Z,100.00
2023-03-21T02:09:18.723Z,100.00
2023-03-21T02:11:47.194Z,100.00
2023-03-21T02:14:26.621Z,100.00
2023-03-21T02:17:07.253Z,100.00
2023-03-21T02:20:02.582Z,100.00
2023-03-21T02:22:34.728Z,100.00
2023-03-21T02:25:13.348Z,100.00
2023-03-21T02:27:51.092Z,100.00
2023-03-21T02:30:52.310Z,100.00
2023-03-21T02:33:22.073Z,100.00
2023-03-21T02:36:14.197Z,100.00
2023-03-21T02:39:01.491Z,100.00
2023-03-21T02:41:40.572Z,100.00
2023-03-21T02:44:14.010Z,100.00
2023-03-21T02:47:08.229Z,100.00
2023-03-21T02:49:38.328Z,100.00
2023-03-21T02:52:17.038Z,100.00
2023-03-21T02:54:53.335Z,100.00
2023-03-21T02:57:31.343Z,100.00
2023-03-21T03:00:16.460Z,100.00
2023-03-21T03:02:54.571Z,100.00
2023-03-21T03:05:29.923Z,100.00
2023-03-21T03:08:07.397Z,100.00
2023-03-21T03:10:44.798Z,100.00
2023-03-21T03:13:24.852Z,100.00
2023-03-21T03:16:01.176Z,100.00
2023-03-21T03:18:48.010Z,100.00
2023-03-21T03:21:22.138Z,100.00
2023-03-21T03:23:50.716Z,100.00
2023-03-21T03:26:26.560Z,100.00
2023-03-21T03:29:00.116Z,100.00
2023-03-21T03:31:32.101Z,100.00
2023-03-21T03:34:03.269Z,100.00
2023-03-21T03:36:35.883Z,100.00
2023-03-21T03:39:12.566Z,100.00
2023-03-21T03:42:07.816Z,100.00
2023-03-21T03:44:41.395Z,100.00
2023-03-21T03:47:17.471Z,100.00
2023-03-21T03:50:13.825Z,100.00
2023-03-21T03:52:56.159Z,100.00
2023-03-21T03:55:34.131Z,100.00
2023-03-21T03:58:16.320Z,100.00
2023-03-21T04:00:50.844Z,100.00
2023-03-21T04:03:19.043Z,100.00
2023-03-21T04:05:46.977Z,100.00
2023-03-21T04:08:16.160Z,100.00
2023-03-21T04:10:46.926Z,100.00
2023-03-21T04:13:15.480Z,100.00
2023-03-21T04:16:03.820Z,100.00
2023-03-21T04:18:32.474Z,100.00
2023-03-21T04:21:01.537Z,100.00
2023-03-21T04:23:34.163Z,100.00
2023-03-21T04:26:02.918Z,100.00
2023-03-21T04:28:37.037Z,100.00
2023-03-21T04:31:27.348Z,100.00
2023-03-21T04:34:10.053Z,100.00
2023-03-21T04:36:46.186Z,100.00
2023-03-21T04:39:17.087Z,100.00
2023-03-21T04:41:48.187Z,100.00
2023-03-21T04:44:17.285Z,100.00
2023-03-21T04:46:45.656Z,100.00
2023-03-21T04:49:13.931Z,100.00
2023-03-21T04:51:45.651Z,100.00
2023-03-21T04:54:18.176Z,100.00
2023-03-21T04:56:46.223Z,100.00
2023-03-21T04:59:15.910Z,100.00
2023-03-21T05:01:46.161Z,100.00
2023-03-21T05:04:14.770Z,100.00
2023-03-21T05:06:44.101Z,100.00
2023-03-21T05:09:13.113Z,100.00
2023-03-21T05:11:41.882Z,100.00
2023-03-21T05:14:12.223Z,100.00
2023-03-21T05:16:48.702Z,100.00
2023-03-21T05:19:19.288Z,100.00
2023-03-21T05:21:47.767Z,100.00
2023-03-21T05:24:20.353Z,100.00
2023-03-21T05:26:52.359Z,100.00
2023-03-21T05:29:22.984Z,100.00
2023-03-21T05:31:54.760Z,100.00
2023-03-21T05:34:23.149Z,100.00
2023-03-21T05:36:51.457Z,100.00
2023-03-21T05:39:19.912Z,100.00
2023-03-21T05:41:58.996Z,100.00
2023-03-21T05:44:27.044Z,100.00
2023-03-21T05:46:55.168Z,100.00
2023-03-21T05:49:27.504Z,100.00
2023-03-21T05:51:57.999Z,100.00
2023-03-21T05:54:26.437Z,100.00
2023-03-21T05:56:55.251Z,100.00
2023-03-21T05:59:43.485Z,100.00
2023-03-21T06:02:12.642Z,100.00
2023-03-21T06:04:41.455Z,100.00
2023-03-21T06:07:09.412Z,100.00
2023-03-21T06:09:39.779Z,100.00
2023-03-21T06:12:08.906Z,100.00
2023-03-21T06:14:42.362Z,100.00
2023-03-21T06:17:23.029Z,100.00
2023-03-21T06:20:01.208Z,100.00
2023-03-21T06:22:32.885Z,100.00
2023-03-21T06:25:02.498Z,100.00
2023-03-21T06:27:31.557Z,100.00
2023-03-21T06:30:00.336Z,100.00
2023-03-21T06:32:29.539Z,100.00
2023-03-21T06:35:02.132Z,100.00
2023-03-21T06:37:30.195Z,100.00
2023-03-21T06:39:58.415Z,100.00
2023-03-21T06:42:27.036Z,100.00
2023-03-21T06:44:59.592Z,100.00
2023-03-21T06:47:28.265Z,100.00
2023-03-21T06:49:56.404Z,100.00
2023-03-21T06:52:24.316Z,100.00
2023-03-21T06:54:53.777Z,100.00
2023-03-21T06:57:22.634Z,100.00
2023-03-21T06:59:58.691Z,100.00
2023-03-21T07:02:26.754Z,100.00
2023-03-21T07:05:02.483Z,100.00
2023-03-21T07:07:31.232Z,100.00
2023-03-21T07:09:59.287Z,100.00
2023-03-21T07:12:29.472Z,100.00
2023-03-21T07:15:07.433Z,100.00
2023-03-21T07:17:37.092Z,100.00
2023-03-21T07:20:12.728Z,100.00
2023-03-21T07:22:40.680Z,100.00
2023-03-21T07:25:09.013Z,100.00
2023-03-21T07:27:41.333Z,100.00
2023-03-21T07:30:10.369Z,100.00
2023-03-21T07:32:38.931Z,100.00
2023-03-21T07:35:13.681Z,99.73
2023-03-21T07:37:44.265Z,98.65
2023-03-21T07:40:14.918Z,97.86
2023-03-21T07:42:43.051Z,97.31
2023-03-21T07:45:16.578Z,96.58
2023-03-21T07:47:46.717Z,95.48
2023-03-21T07:50:15.018Z,94.34
2023-03-21T07:52:43.140Z,93.25
2023-03-21T07:55:11.616Z,92.02
2023-03-21T07:57:39.648Z,92.45
2023-03-21T08:00:08.256Z,90.43
2023-03-21T08:02:43.617Z,90.01
2023-03-21T08:05:12.110Z,90.16
2023-03-21T08:07:40.018Z,89.34
2023-03-21T08:10:08.889Z,88.93
2023-03-21T08:12:36.671Z,89.05
2023-03-21T08:15:04.706Z,87.66
2023-03-21T08:17:32.629Z,87.35
2023-03-21T08:20:00.650Z,87.01
2023-03-21T08:22:28.475Z,86.42
2023-03-21T08:24:56.267Z,86.26
2023-03-21T08:27:24.085Z,86.41
2023-03-21T08:29:51.858Z,85.61
2023-03-21T08:32:20.037Z,84.93
2023-03-21T08:34:47.887Z,85.90
2023-03-21T08:37:15.799Z,86.18
2023-03-21T08:39:43.759Z,84.66
2023-03-21T08:42:11.608Z,83.37
2023-03-21T08:44:39.900Z,81.42
2023-03-21T08:47:08.351Z,81.31
2023-03-21T08:49:36.322Z,81.06
2023-03-21T08:52:04.792Z,81.17
2023-03-21T08:54:33.042Z,79.93
2023-03-21T08:57:01.106Z,79.18
2023-03-21T08:59:29.018Z,77.64
2023-03-21T09:01:57.010Z,75.42
2023-03-21T09:04:26.158Z,74.77
2023-03-21T09:06:56.372Z,73.06
2023-03-21T09:09:24.364Z,68.99
2023-03-21T09:11:52.663Z,64.41
2023-03-21T09:14:23.873Z,65.33
2023-03-21T09:16:57.281Z,65.69
2023-03-21T09:19:25.900Z,65.28
2023-03-21T09:21:55.822Z,65.25
2023-03-21T09:24:24.293Z,64.84
2023-03-21T09:26:52.450Z,63.55
2023-03-21T09:29:21.530Z,64.81
2023-03-21T09:31:49.916Z,64.31
2023-03-21T09:34:17.809Z,64.41
2023-03-21T09:36:48.418Z,63.54
2023-03-21T09:39:17.008Z,63.60
2023-03-21T09:41:53.145Z,64.47
2023-03-21T09:44:24.763Z,64.25
2023-03-21T09:47:03.200Z,64.31
2023-03-21T09:49:42.285Z,64.76
2023-03-21T09:52:18.913Z,64.75
2023-03-21T09:54:47.189Z,65.33
2023-03-21T09:57:35.789Z,65.53
2023-03-21T10:00:16.405Z,64.70
2023-03-21T10:02:48.082Z,64.52
2023-03-21T10:05:24.551Z,63.54
2023-03-21T10:08:11.404Z,62.56
2023-03-21T10:10:46.656Z,63.80
2023-03-21T10:13:24.034Z,63.28
2023-03-21T10:15:56.297Z,62.69
2023-03-21T10:18:26.613Z,62.29
2023-03-21T10:20:54.898Z,61.60
2023-03-21T10:23:29.430Z,61.23
2023-03-21T10:25:59.986Z,60.91
2023-03-21T10:28:34.496Z,61.22
2023-03-21T10:31:11.394Z,61.89
2023-03-21T10:33:43.479Z,62.38
2023-03-21T10:36:14.161Z,61.96
2023-03-21T10:38:45.337Z,62.00
2023-03-21T10:41:16.057Z,61.04
2023-03-21T10:43:48.296Z,60.15
2023-03-21T10:46:16.608Z,59.94
2023-03-21T10:48:46.919Z,60.82
2023-03-21T10:51:17.368Z,60.36
2023-03-21T10:53:47.701Z,59.32
2023-03-21T10:56:15.813Z,59.54
2023-03-21T10:58:47.492Z,60.62
2023-03-21T11:01:26.118Z,60.76
2023-03-21T11:03:57.174Z,60.50
2023-03-21T11:06:28.127Z,60.60
2023-03-21T11:09:08.395Z,60.74
2023-03-21T11:11:41.068Z,60.53
2023-03-21T11:14:24.175Z,60.62
2023-03-21T11:16:52.297Z,60.75
2023-03-21T11:19:27.605Z,59.91
2023-03-21T11:21:56.968Z,59.52
2023-03-21T11:24:29.299Z,59.01
2023-03-21T11:26:59.861Z,58.81
2023-03-21T11:29:33.430Z,58.68
2023-03-21T11:32:02.563Z,59.59
2023-03-21T11:34:39.302Z,59.59
2023-03-21T11:37:17.488Z,58.21
2023-03-21T11:39:48.145Z,57.35
2023-03-21T11:42:41.132Z,57.92
2023-03-21T11:45:28.762Z,57.44
2023-03-21T11:47:58.755Z,57.08
2023-03-21T11:50:33.917Z,57.68
2023-03-21T11:53:22.289Z,58.67
2023-03-21T11:55:59.400Z,57.68
2023-03-21T11:58:33.738Z,58.18
2023-03-21T12:01:13.250Z,59.09
2023-03-21T12:03:58.624Z,59.43
2023-03-21T12:06:37.968Z,59.58
2023-03-21T12:09:15.899Z,59.13
2023-03-21T12:12:04.705Z,58.55
2023-03-21T12:14:43.346Z,58.19
2023-03-21T12:17:17.212Z,58.31
2023-03-21T12:19:50.078Z,57.96
2023-03-21T12:22:21.113Z,57.89
2023-03-21T12:24:54.166Z,58.04
2023-03-21T12:27:34.669Z,58.27
2023-03-21T12:30:20.351Z,57.54
2023-03-21T12:33:24.275Z,56.26
2023-03-21T12:36:11.330Z,57.33
2023-03-21T12:38:48.043Z,57.74
2023-03-21T12:41:27.537Z,57.04
2023-03-21T12:44:24.810Z,57.86
2023-03-21T12:47:01.481Z,57.33
2023-03-21T12:49:38.713Z,57.19
2023-03-21T12:52:13.125Z,57.44
2023-03-21T12:54:44.140Z,56.39
2023-03-21T12:57:40.232Z,56.54
2023-03-21T13:00:37.280Z,55.75
2023-03-21T13:03:22.862Z,56.51
2023-03-21T13:06:04.616Z,56.40
2023-03-21T13:08:49.007Z,56.38
2023-03-21T13:11:22.387Z,56.77
2023-03-21T13:13:56.926Z,56.47
2023-03-21T13:16:31.145Z,56.61
2023-03-21T13:19:05.398Z,56.19
2023-03-21T13:21:46.413Z,56.50
2023-03-21T13:24:20.307Z,55.94
2023-03-21T13:26:52.427Z,56.07
2023-03-21T13:29:20.693Z,55.71
2023-03-21T13:31:54.620Z,55.66
2023-03-21T13:34:24.437Z,55.74
2023-03-21T13:36:53.150Z,55.16
2023-03-21T13:39:26.407Z,53.87
2023-03-21T13:41:54.999Z,53.92
2023-03-21T13:44:26.381Z,53.90
2023-03-21T13:46:59.480Z,54.58
2023-03-21T13:49:29.168Z,54.41
2023-03-21T13:51:58.954Z,54.25
2023-03-21T13:54:39.388Z,53.68
2023-03-21T13:57:43.500Z,53.64
2023-03-21T14:00:18.158Z,52.52
2023-03-21T14:03:07.185Z,52.29
2023-03-21T14:05:42.066Z,52.45
2023-03-21T14:08:36.827Z,50.93
2023-03-21T14:15:23.755Z,48.39
2023-03-21T14:18:06.501Z,48.55
2023-03-21T14:20:52.460Z,48.62
2023-03-21T14:23:20.743Z,48.40
2023-03-21T14:25:49.652Z,48.30
2023-03-21T14:28:51.007Z,48.27
2023-03-21T14:31:33.379Z,47.80
2023-03-21T14:37:01.522Z,48.22
2023-03-21T14:39:35.736Z,48.65
2023-03-21T14:42:05.962Z,48.95
2023-03-21T14:44:51.023Z,49.14
2023-03-21T14:47:22.893Z,49.33
2023-03-21T14:49:51.438Z,49.41
2023-03-21T14:52:37.175Z,49.22
2023-03-21T14:55:17.532Z,49.09
2023-03-21T14:57:48.793Z,49.05
2023-03-21T15:00:26.410Z,49.01
2023-03-21T15:03:08.824Z,48.40
2023-03-21T15:05:42.348Z,48.37
2023-03-21T15:08:23.419Z,48.53
2023-03-21T15:11:18.431Z,48.68
2023-03-21T15:14:06.168Z,48.69
2023-03-21T15:16:38.132Z,48.98
2023-03-21T15:19:16.617Z,49.15
2023-03-21T15:21:47.025Z,48.95
2023-03-21T15:24:28.763Z,48.25
2023-03-21T15:27:01.412Z,47.85
2023-03-21T15:29:30.035Z,47.56
2023-03-21T15:31:59.203Z,47.62
2023-03-21T15:34:31.768Z,47.68
2023-03-21T15:37:20.874Z,46.74
2023-03-21T15:39:54.759Z,46.22
2023-03-21T15:42:27.923Z,46.74
2023-03-21T15:45:01.177Z,46.87
2023-03-21T15:48:03.377Z,47.19
2023-03-21T15:50:37.714Z,47.49
2023-03-21T15:53:13.171Z,47.76
2023-03-21T15:55:48.465Z,48.04
2023-03-21T15:58:19.740Z,48.15
2023-03-21T16:01:07.660Z,48.35
2023-03-21T16:03:49.633Z,48.44
2023-03-21T16:06:36.657Z,48.48
2023-03-21T16:09:10.379Z,48.55
2023-03-21T16:11:39.903Z,48.71
2023-03-21T16:14:12.961Z,48.90
2023-03-21T16:16:40.882Z,48.95
2023-03-21T16:19:13.180Z,49.10
2023-03-21T16:21:42.172Z,49.20
2023-03-21T16:24:11.724Z,49.11
2023-03-21T16:26:46.029Z,48.25
2023-03-21T16:29:15.617Z,47.87
2023-03-21T16:31:44.495Z,47.93
2023-03-21T16:34:14.179Z,47.87
2023-03-21T16:36:59.144Z,48.10
2023-03-21T16:39:34.447Z,48.60
2023-03-21T16:42:02.369Z,49.22
2023-03-21T16:44:32.010Z,49.89
2023-03-21T16:47:02.204Z,50.92
2023-03-21T16:49:31.082Z,51.88
2023-03-21T16:51:59.071Z,52.74
2023-03-21T16:54:27.067Z,53.11
2023-03-21T16:56:55.794Z,53.38
2023-03-21T16:59:23.739Z,53.65
2023-03-21T17:01:51.740Z,53.93
2023-03-21T17:04:19.674Z,54.33
2023-03-21T17:06:49.444Z,54.80
2023-03-21T17:09:21.242Z,54.99
2023-03-21T17:11:49.601Z,55.52
2023-03-21T17:14:18.879Z,55.99
2023-03-21T17:16:47.188Z,55.75
2023-03-21T17:19:19.830Z,55.47
2023-03-21T17:21:47.803Z,55.29
2023-03-21T17:24:15.878Z,55.27
2023-03-21T17:26:43.723Z,55.29
2023-03-21T17:29:15.065Z,55.32
2023-03-21T17:31:47.454Z,55.39
2023-03-21T17:34:15.911Z,55.28
2023-03-21T17:36:44.785Z,55.26
2023-03-21T17:39:20.371Z,54.96
2023-03-21T17:41:49.821Z,54.97
2023-03-21T17:44:18.090Z,55.30
2023-03-21T17:46:46.617Z,55.59
2023-03-21T17:49:15.980Z,55.57
2023-03-21T17:51:55.656Z,55.43
2023-03-21T17:54:23.721Z,55.92
2023-03-21T17:56:51.797Z,56.53
2023-03-21T17:59:20.176Z,57.47
2023-03-21T18:01:48.629Z,58.58
2023-03-21T18:04:20.027Z,59.23
2023-03-21T18:06:48.200Z,59.92
2023-03-21T18:09:21.826Z,60.40
2023-03-21T18:11:55.189Z,60.90
2023-03-21T18:14:28.496Z,61.35
2023-03-21T18:16:59.164Z,61.70
2023-03-21T18:19:29.868Z,62.04
2023-03-21T18:21:59.252Z,62.41
2023-03-21T18:24:30.145Z,62.84
2023-03-21T18:27:01.563Z,63.21
2023-03-21T18:30:19.589Z,63.87
2023-03-21T18:32:21.890Z,64.51
2023-03-21T18:35:01.257Z,65.13
2023-03-21T18:37:37.151Z,65.50
2023-03-21T18:40:33.521Z,65.97
2023-03-21T18:43:55.797Z,67.14
2023-03-21T18:46:05.776Z,68.13
2023-03-21T18:48:35.476Z,68.84
2023-03-21T18:51:07.889Z,69.85
2023-03-21T18:53:39.210Z,70.53
2023-03-21T18:56:11.605Z,71.33
2023-03-21T18:58:48.143Z,71.86
2023-03-21T19:01:16.329Z,72.13
2023-03-21T19:03:58.247Z,72.02
2023-03-21T19:09:29.316Z,71.79
2023-03-21T19:12:09.361Z,71.62
2023-03-21T19:14:37.371Z,71.70
2023-03-21T19:19:53.928Z,72.23
2023-03-21T19:22:29.537Z,72.41
2023-03-21T19:24:58.654Z,73.06
2023-03-21T19:27:29.002Z,73.77
2023-03-21T19:30:13.386Z,74.46
2023-03-21T19:32:42.354Z,75.31
2023-03-21T19:35:10.815Z,76.04
2023-03-21T19:37:38.704Z,76.73
2023-03-21T19:40:07.640Z,77.09
2023-03-21T19:42:36.782Z,77.03
2023-03-21T19:45:05.440Z,76.15
2023-03-21T19:47:33.401Z,75.43
2023-03-21T19:52:49.400Z,75.23
2023-03-21T19:55:17.457Z,75.62
2023-03-21T19:57:48.624Z,76.30
2023-03-21T20:00:17.752Z,76.37
2023-03-21T20:02:47.271Z,76.70
2023-03-21T20:05:16.857Z,77.05
2023-03-21T20:07:44.841Z,77.84
2023-03-21T20:10:12.907Z,78.73
2023-03-21T20:12:40.964Z,79.50
2023-03-21T20:15:19.225Z,80.16
2023-03-21T20:17:50.274Z,80.77
2023-03-21T20:20:18.809Z,80.46
2023-03-21T20:25:44.064Z,80.49
2023-03-21T20:28:16.858Z,81.18
2023-03-21T20:30:54.182Z,82.06
2023-03-21T20:33:22.274Z,82.54
2023-03-21T20:38:43.525Z,82.40
2023-03-21T20:41:12.093Z,82.53
2023-03-21T20:46:28.543Z,82.17
2023-03-21T20:48:59.830Z,81.74
2023-03-21T20:54:16.563Z,82.44
2023-03-21T20:56:44.724Z,82.69
2023-03-21T20:59:23.178Z,83.94
2023-03-21T21:01:54.058Z,84.24
2023-03-21T21:04:23.034Z,83.31
2023-03-21T21:06:55.388Z,84.24
2023-03-21T21:09:23.439Z,84.61
2023-03-21T21:12:09.447Z,84.46
2023-03-21T21:14:38.268Z,83.79
2023-03-21T21:17:23.790Z,84.52
2023-03-21T21:19:55.569Z,84.17
2023-03-21T21:22:23.591Z,83.20
2023-03-21T21:24:52.055Z,82.67
2023-03-21T21:27:20.103Z,83.08
2023-03-21T21:29:50.257Z,82.67
2023-03-21T21:32:19.747Z,83.21
2023-03-21T21:34:48.080Z,83.73
2023-03-21T21:37:16.219Z,83.22
2023-03-21T21:39:44.228Z,83.62
2023-03-21T21:42:12.317Z,83.87
2023-03-21T21:44:45.125Z,83.76
2023-03-21T21:47:13.736Z,83.62
2023-03-21T21:49:41.909Z,83.33
2023-03-21T21:52:13.445Z,82.86
2023-03-21T21:54:46.030Z,83.07
2023-03-21T21:57:14.421Z,83.49
2023-03-21T21:59:42.553Z,83.45
2023-03-21T22:02:13.878Z,83.93
2023-03-21T22:04:42.207Z,83.73
2023-03-21T22:07:14.695Z,83.53
2023-03-21T22:09:43.397Z,83.45
2023-03-21T22:12:11.409Z,83.59
2023-03-21T22:14:41.339Z,83.78
2023-03-21T22:17:09.541Z,84.02
2023-03-21T22:19:40.096Z,84.57
2023-03-21T22:22:08.533Z,84.42
2023-03-21T22:24:37.699Z,84.76
2023-03-21T22:27:06.103Z,85.13
2023-03-21T22:29:34.272Z,85.55
2023-03-21T22:32:02.372Z,85.38
2023-03-21T22:34:31.249Z,85.63
2023-03-21T22:37:00.171Z,85.69
2023-03-21T22:39:28.870Z,85.84
2023-03-21T22:42:01.023Z,86.21
2023-03-21T22:44:35.198Z,86.57
2023-03-21T22:47:08.175Z,86.39
2023-03-21T22:49:36.544Z,86.74
2023-03-21T22:52:05.788Z,87.06
2023-03-21T22:54:34.087Z,87.17
2023-03-21T22:57:04.267Z,87.40
2023-03-21T22:59:32.691Z,88.56
2023-03-21T23:02:09.662Z,88.70
2023-03-21T23:04:40.562Z,88.93
2023-03-21T23:07:16.725Z,89.88
2023-03-21T23:09:44.951Z,89.79
2023-03-21T23:12:14.832Z,89.95
2023-03-21T23:14:42.780Z,90.40
2023-03-21T23:17:13.081Z,91.69
2023-03-21T23:19:46.442Z,92.50
2023-03-21T23:22:14.493Z,92.44
2023-03-21T23:24:45.705Z,94.81
2023-03-21T23:27:14.421Z,96.46
2023-03-21T23:29:45.449Z,96.71
2023-03-21T23:32:13.578Z,97.05
2023-03-21T23:34:41.680Z,98.55
2023-03-21T23:37:29.987Z,99.50
2023-03-21T23:39:58.235Z,100.00
2023-03-21T23:42:30.286Z,100.00
2023-03-21T23:45:03.751Z,100.00
2023-03-21T23:47:34.189Z,100.00
2023-03-21T23:50:10.427Z,100.00
2023-03-21T23:52:41.120Z,100.00
2023-03-21T23:55:13.758Z,100.00
2023-03-21T23:57:44.285Z,100.00
